createdAt,value
2022-10-18T00:00:56.515Z,26.65
2022-10-18T00:03:24.919Z,27.55
2022-10-18T00:05:52.999Z,26.42
2022-10-18T00:08:21.790Z,28.35
2022-10-18T00:10:51.427Z,30.50
2022-10-18T00:13:19.444Z,28.17
2022-10-18T00:15:52.004Z,28.50
2022-10-18T00:18:20.451Z,27.25
2022-10-18T00:20:57.850Z,27.65
2022-10-18T00:23:25.920Z,28.40
2022-10-18T00:26:02.645Z,28.00
2022-10-18T00:28:30.561Z,29.83
2022-10-18T00:30:58.648Z,30.95
2022-10-18T00:33:26.690Z,31.98
2022-10-18T00:35:54.692Z,27.58
2022-10-18T00:38:22.720Z,28.33
2022-10-18T00:40:50.923Z,28.05
2022-10-18T00:43:20.513Z,29.95
2022-10-18T00:45:48.558Z,28.77
2022-10-18T00:48:18.758Z,27.65
2022-10-18T00:50:48.772Z,26.02
2022-10-18T00:53:19.054Z,25.38
2022-10-18T00:55:47.488Z,25.23
2022-10-18T00:58:18.203Z,25.02
2022-10-18T01:00:47.767Z,25.95
2022-10-18T01:03:15.751Z,25.42
2022-10-18T01:05:46.505Z,32.95
2022-10-18T01:08:44.162Z,27.08
2022-10-18T01:11:25.140Z,26.55
2022-10-18T01:14:02.668Z,30.55
2022-10-18T01:16:40.183Z,29.25
2022-10-18T01:19:18.765Z,29.67
2022-10-18T01:21:52.551Z,29.38
2022-10-18T01:24:48.438Z,23.98
2022-10-18T01:27:32.636Z,24.58
2022-10-18T01:30:24.237Z,24.33
2022-10-18T01:32:54.981Z,23.10
2022-10-18T01:35:27.326Z,24.35
2022-10-18T01:38:00.415Z,23.95
2022-10-18T01:40:30.588Z,22.08
2022-10-18T01:42:58.656Z,21.70
2022-10-18T01:45:29.069Z,21.25
2022-10-18T01:47:57.800Z,21.27
2022-10-18T01:50:33.721Z,22.13
2022-10-18T01:53:02.029Z,21.15
2022-10-18T01:55:37.015Z,21.17
2022-10-18T01:58:09.422Z,22.10
2022-10-18T02:00:42.772Z,22.38
2022-10-18T02:03:18.754Z,22.42
2022-10-18T02:05:52.899Z,23.25
2022-10-18T02:08:29.498Z,22.77
2022-10-18T02:11:04.131Z,22.35
2022-10-18T02:13:37.675Z,22.80
2022-10-18T02:16:11.290Z,21.50
2022-10-18T02:18:45.630Z,21.75
2022-10-18T02:21:19.031Z,22.48
2022-10-18T02:23:48.090Z,22.75
2022-10-18T02:26:17.032Z,21.58
2022-10-18T02:28:45.477Z,23.10
2022-10-18T02:31:20.202Z,26.13
2022-10-18T02:33:53.398Z,23.77
2022-10-18T02:36:26.949Z,22.83
2022-10-18T02:38:57.793Z,22.77
2022-10-18T02:41:27.612Z,22.77
2022-10-18T02:43:55.717Z,22.45
2022-10-18T02:48:53.201Z,23.50
2022-10-18T02:51:21.137Z,23.48
2022-10-18T02:53:49.000Z,25.80
2022-10-18T02:56:16.985Z,24.17
2022-10-18T02:58:45.027Z,24.23
2022-10-18T03:01:13.100Z,25.73
2022-10-18T03:03:42.548Z,22.58
2022-10-18T03:06:10.505Z,21.75
2022-10-18T03:08:38.781Z,26.88
2022-10-18T03:11:07.021Z,23.85
2022-10-18T03:13:35.066Z,23.23
2022-10-18T03:16:03.226Z,24.73
2022-10-18T03:18:31.160Z,22.88
2022-10-18T03:21:05.500Z,23.33
2022-10-18T03:23:33.684Z,23.42
2022-10-18T03:26:01.993Z,23.02
2022-10-18T03:28:29.843Z,26.95
2022-10-18T03:31:01.920Z,23.05
2022-10-18T03:33:30.219Z,23.70
2022-10-18T03:35:58.528Z,24.70
2022-10-18T03:38:28.247Z,21.20
2022-10-18T03:40:56.156Z,22.75
2022-10-18T03:43:24.204Z,23.92
2022-10-18T03:45:53.264Z,21.02
2022-10-18T03:48:21.199Z,21.30
2022-10-18T03:50:49.114Z,22.02
2022-10-18T03:53:16.971Z,21.33
2022-10-18T03:55:46.320Z,22.10
2022-10-18T03:58:14.359Z,21.00
2022-10-18T04:00:42.301Z,22.13
2022-10-18T04:03:10.227Z,24.70
2022-10-18T04:05:38.221Z,22.80
2022-10-18T04:08:06.640Z,23.63
2022-10-18T04:10:34.683Z,22.45
2022-10-18T04:13:04.067Z,21.77
2022-10-18T04:15:32.534Z,23.15
2022-10-18T04:18:00.663Z,25.05
2022-10-18T04:20:29.550Z,23.25
2022-10-18T04:22:57.784Z,22.73
2022-10-18T04:25:26.469Z,21.15
2022-10-18T04:27:54.389Z,22.52
2022-10-18T04:30:23.787Z,24.13
2022-10-18T04:32:51.700Z,22.15
2022-10-18T04:35:19.785Z,20.55
2022-10-18T04:37:47.858Z,21.70
2022-10-18T04:40:16.008Z,21.50
2022-10-18T04:42:43.941Z,21.17
2022-10-18T04:45:12.494Z,20.58
2022-10-18T04:47:41.947Z,20.80
2022-10-18T04:50:10.207Z,21.88
2022-10-18T04:52:38.206Z,23.23
2022-10-18T04:55:06.909Z,20.02
2022-10-18T04:57:34.951Z,19.20
2022-10-18T05:00:03.381Z,19.67
2022-10-18T05:02:31.557Z,17.67
2022-10-18T05:05:01.293Z,17.40
2022-10-18T05:07:29.283Z,16.35
2022-10-18T05:09:57.555Z,16.05
2022-10-18T05:12:25.610Z,16.02
2022-10-18T05:14:56.251Z,15.73
2022-10-18T05:17:24.317Z,18.27
2022-10-18T05:19:52.234Z,17.52
2022-10-18T05:22:21.743Z,16.33
2022-10-18T05:24:49.649Z,15.98
2022-10-18T05:27:17.699Z,17.20
2022-10-18T05:29:46.046Z,17.38
2022-10-18T05:32:16.067Z,17.77
2022-10-18T05:34:44.177Z,18.17
2022-10-18T05:37:12.274Z,18.60
2022-10-18T05:39:42.023Z,16.55
2022-10-18T05:42:09.923Z,16.73
2022-10-18T05:44:37.994Z,16.92
2022-10-18T05:47:06.179Z,17.38
2022-10-18T05:49:34.146Z,18.08
2022-10-18T05:52:02.236Z,17.73
2022-10-18T05:54:30.242Z,18.08
2022-10-18T05:57:00.116Z,18.90
2022-10-18T05:59:28.126Z,19.30
2022-10-18T06:01:56.285Z,17.70
2022-10-18T06:04:24.375Z,20.65
2022-10-18T06:06:52.388Z,20.27
2022-10-18T06:09:20.487Z,18.50
2022-10-18T06:11:48.551Z,20.17
2022-10-18T06:14:17.881Z,19.30
2022-10-18T06:16:45.802Z,19.63
2022-10-18T06:19:13.888Z,20.60
2022-10-18T06:21:41.968Z,19.35
2022-10-18T06:24:10.065Z,18.95
2022-10-18T06:26:38.001Z,22.08
2022-10-18T06:29:06.510Z,20.20
2022-10-18T06:31:36.009Z,19.38
2022-10-18T06:34:05.151Z,20.83
2022-10-18T06:36:33.128Z,20.27
2022-10-18T06:39:01.088Z,22.52
2022-10-18T06:41:28.976Z,22.88
2022-10-18T06:43:58.601Z,20.15
2022-10-18T06:46:27.458Z,19.95
2022-10-18T06:48:57.673Z,26.00
2022-10-18T06:51:25.649Z,20.48
2022-10-18T06:54:06.123Z,21.73
2022-10-18T06:56:41.595Z,20.73
2022-10-18T06:59:09.697Z,19.45
2022-10-18T07:01:37.722Z,18.63
2022-10-18T07:04:07.272Z,19.88
2022-10-18T07:06:35.455Z,19.33
2022-10-18T07:09:03.930Z,19.33
2022-10-18T07:11:31.857Z,18.10
2022-10-18T07:14:03.165Z,19.67
2022-10-18T07:16:32.007Z,19.42
2022-10-18T07:19:00.457Z,18.95
2022-10-18T07:21:30.296Z,19.15
2022-10-18T07:23:58.909Z,19.48
2022-10-18T07:26:29.180Z,20.38
2022-10-18T07:29:00.530Z,18.50
2022-10-18T07:31:30.004Z,20.50
2022-10-18T07:34:00.307Z,19.15
2022-10-18T07:36:29.773Z,18.38
2022-10-18T07:38:58.011Z,19.55
2022-10-18T07:41:26.297Z,19.02
2022-10-18T07:43:54.688Z,20.85
2022-10-18T07:46:24.106Z,20.30
2022-10-18T07:48:52.352Z,20.92
2022-10-18T07:51:21.457Z,19.38
2022-10-18T07:53:50.932Z,19.60
2022-10-18T07:56:21.812Z,19.55
2022-10-18T07:58:52.267Z,19.70
2022-10-18T08:01:21.900Z,19.73
2022-10-18T08:03:50.091Z,20.48
2022-10-18T08:06:20.009Z,20.20
2022-10-18T08:08:56.823Z,20.08
2022-10-18T08:22:06.585Z,20.40
2022-10-18T08:24:36.208Z,20.15
2022-10-18T08:27:04.341Z,20.90
2022-10-18T08:29:32.349Z,21.52
2022-10-18T08:32:00.396Z,20.25
2022-10-18T08:34:28.378Z,19.10
2022-10-18T08:36:57.380Z,19.75
2022-10-18T08:39:25.506Z,20.70
2022-10-18T08:42:44.440Z,18.92
2022-10-18T08:45:30.042Z,19.00
2022-10-18T08:48:07.241Z,18.55
2022-10-18T08:50:37.889Z,18.60
2022-10-18T08:53:18.223Z,18.40
2022-10-18T08:55:52.443Z,19.27
2022-10-18T08:58:22.660Z,19.25
2022-10-18T09:01:02.287Z,18.98
2022-10-18T09:04:02.330Z,16.98
2022-10-18T09:06:34.948Z,16.63
2022-10-18T09:09:19.326Z,13.15
2022-10-18T09:11:58.077Z,15.23
2022-10-18T09:15:07.683Z,17.00
2022-10-18T09:17:48.972Z,11.68
2022-10-18T09:20:24.177Z,15.27
2022-10-18T09:22:57.840Z,15.30
2022-10-18T09:25:32.753Z,12.98
2022-10-18T09:28:15.444Z,14.10
2022-10-18T09:30:50.751Z,12.15
2022-10-18T09:33:31.818Z,13.23
2022-10-18T09:36:02.486Z,14.02
2022-10-18T09:38:33.757Z,14.85
2022-10-18T09:41:07.580Z,13.25
2022-10-18T09:43:47.478Z,12.02
2022-10-18T09:46:19.157Z,12.93
2022-10-18T09:48:52.419Z,13.30
2022-10-18T09:51:22.810Z,4.68
2022-10-18T09:54:05.906Z,4.93
2022-10-18T09:56:40.925Z,6.60
2022-10-18T09:59:28.687Z,6.10
2022-10-18T10:01:57.426Z,4.68
2022-10-18T10:04:26.861Z,4.35
2022-10-18T10:06:59.495Z,4.68
2022-10-18T10:09:29.531Z,5.88
2022-10-18T10:12:02.328Z,4.90
2022-10-18T10:14:31.087Z,6.00
2022-10-18T10:17:02.446Z,5.13
2022-10-18T10:19:34.163Z,4.53
2022-10-18T10:22:06.724Z,4.45
2022-10-18T10:24:40.942Z,4.20
2022-10-18T10:27:19.120Z,3.65
2022-10-18T10:29:57.673Z,3.53
2022-10-18T10:32:30.606Z,2.72
2022-10-18T10:35:02.603Z,3.22
2022-10-18T10:37:34.993Z,3.35
2022-10-18T10:40:28.548Z,3.38
2022-10-18T10:43:12.984Z,3.10
2022-10-18T10:45:59.669Z,3.17
2022-10-18T10:48:32.455Z,3.22
2022-10-18T10:51:06.089Z,2.75
2022-10-18T10:53:38.248Z,2.40
2022-10-18T10:56:08.094Z,2.42
2022-10-18T10:58:38.795Z,2.20
2022-10-18T11:01:25.266Z,2.35
2022-10-18T11:03:54.855Z,2.53
2022-10-18T11:06:58.996Z,2.38
2022-10-18T11:09:38.842Z,2.13
2022-10-18T11:12:18.489Z,2.03
2022-10-18T11:14:51.355Z,1.85
2022-10-18T11:17:28.808Z,2.03
2022-10-18T11:20:16.557Z,1.80
2022-10-18T11:22:49.719Z,1.70
2022-10-18T11:25:19.644Z,1.70
2022-10-18T11:27:55.697Z,1.73
2022-10-18T11:30:44.484Z,2.25
2022-10-18T11:33:29.608Z,1.60
2022-10-18T11:36:10.156Z,1.73
2022-10-18T11:38:44.307Z,1.75
2022-10-18T11:41:25.068Z,1.90
2022-10-18T11:44:02.602Z,1.67
2022-10-18T11:46:48.248Z,2.75
2022-10-18T11:49:43.668Z,1.80
2022-10-18T11:52:16.838Z,1.65
2022-10-18T11:55:04.618Z,2.20
2022-10-18T11:57:44.636Z,1.92
2022-10-18T12:00:29.913Z,1.95
2022-10-18T12:03:16.677Z,1.80
2022-10-18T12:05:48.204Z,1.48
2022-10-18T12:08:19.313Z,1.52
2022-10-18T12:11:06.885Z,1.75
2022-10-18T12:13:41.496Z,2.00
2022-10-18T12:16:10.551Z,1.75
2022-10-18T12:18:54.840Z,2.38
2022-10-18T12:21:25.832Z,1.55
2022-10-18T12:23:58.693Z,2.35
2022-10-18T12:26:29.282Z,1.75
2022-10-18T12:29:15.271Z,1.60
2022-10-18T12:31:47.196Z,1.75
2022-10-18T12:34:29.391Z,1.83
2022-10-18T12:37:15.577Z,1.70
2022-10-18T12:40:05.554Z,1.83
2022-10-18T12:42:41.537Z,1.55
2022-10-18T12:45:27.333Z,1.70
2022-10-18T12:47:56.114Z,1.90
2022-10-18T12:50:36.973Z,1.70
2022-10-18T12:53:25.268Z,2.25
2022-10-18T12:55:54.663Z,1.80
2022-10-18T12:58:29.118Z,1.63
2022-10-18T13:01:08.498Z,1.58
2022-10-18T13:04:01.325Z,1.60
2022-10-18T13:07:08.599Z,1.65
2022-10-18T13:09:37.817Z,1.50
2022-10-18T13:12:46.490Z,1.75
2022-10-18T13:15:42.268Z,1.40
2022-10-18T13:18:24.782Z,1.42
2022-10-18T13:21:03.597Z,1.50
2022-10-18T13:23:41.074Z,1.40
2022-10-18T13:26:20.502Z,1.75
2022-10-18T13:28:58.102Z,1.67
2022-10-18T13:31:36.448Z,1.40
2022-10-18T13:34:26.419Z,1.33
2022-10-18T13:37:02.093Z,1.52
2022-10-18T13:39:31.264Z,1.50
2022-10-18T13:42:29.536Z,1.48
2022-10-18T13:45:37.267Z,1.50
2022-10-18T13:48:42.661Z,1.38
2022-10-18T13:51:46.020Z,1.73
2022-10-18T13:54:39.705Z,0.85
2022-10-18T13:57:20.194Z,1.70
2022-10-18T14:00:09.437Z,1.40
2022-10-18T14:03:00.392Z,1.90
2022-10-18T14:05:51.838Z,1.48
2022-10-18T14:08:26.301Z,1.65
2022-10-18T14:11:03.466Z,1.73
2022-10-18T14:13:39.221Z,1.60
2022-10-18T14:16:12.087Z,1.52
2022-10-18T14:18:43.575Z,1.95
2022-10-18T14:21:21.773Z,1.77
2022-10-18T14:23:52.312Z,1.90
2022-10-18T14:26:22.803Z,1.98
2022-10-18T14:29:05.024Z,1.85
2022-10-18T14:31:33.702Z,1.90
2022-10-18T14:34:03.613Z,1.50
2022-10-18T14:36:38.385Z,2.08
2022-10-18T14:39:17.717Z,1.95
2022-10-18T14:41:50.096Z,2.03
2022-10-18T14:44:21.145Z,2.30
2022-10-18T14:46:51.066Z,2.03
2022-10-18T14:49:20.566Z,2.03
2022-10-18T14:51:52.012Z,1.90
2022-10-18T14:54:30.690Z,1.80
2022-10-18T14:57:01.186Z,1.98
2022-10-18T14:59:31.827Z,2.10
2022-10-18T15:02:02.072Z,1.67
2022-10-18T15:04:33.010Z,2.10
2022-10-18T15:07:03.054Z,2.15
2022-10-18T15:09:35.134Z,1.60
2022-10-18T15:12:06.406Z,1.90
2022-10-18T15:14:35.842Z,2.53
2022-10-18T15:17:09.608Z,1.92
2022-10-18T15:19:39.909Z,2.10
2022-10-18T15:25:21.772Z,1.83
2022-10-18T15:27:52.116Z,2.50
2022-10-18T15:30:27.492Z,1.58
2022-10-18T15:32:57.597Z,1.80
2022-10-18T15:35:28.255Z,1.80
2022-10-18T15:37:58.079Z,1.60
2022-10-18T15:40:38.809Z,2.15
2022-10-18T15:43:22.960Z,2.17
2022-10-18T15:45:52.921Z,1.67
2022-10-18T15:48:24.600Z,1.92
2022-10-18T15:50:54.273Z,1.98
2022-10-18T15:53:41.580Z,1.90
2022-10-18T15:56:29.079Z,2.00
2022-10-18T15:58:58.581Z,2.22
2022-10-18T16:01:36.200Z,2.10
2022-10-18T16:04:09.541Z,2.90
2022-10-18T16:06:38.648Z,2.30
2022-10-18T16:09:06.817Z,2.90
2022-10-18T16:11:36.085Z,3.83
2022-10-18T16:14:04.024Z,5.10
2022-10-18T16:16:32.221Z,5.70
2022-10-18T16:19:00.446Z,6.40
2022-10-18T16:21:30.548Z,7.03
2022-10-18T16:23:59.049Z,8.30
2022-10-18T16:26:27.811Z,8.93
2022-10-18T16:28:58.618Z,9.85
2022-10-18T16:31:28.384Z,9.18
2022-10-18T16:33:57.530Z,9.93
2022-10-18T16:36:29.010Z,8.48
2022-10-18T16:38:57.528Z,11.65
2022-10-18T16:41:26.065Z,11.98
2022-10-18T16:43:54.047Z,11.90
2022-10-18T16:46:30.345Z,11.82
2022-10-18T16:48:58.727Z,12.15
2022-10-18T16:51:26.842Z,13.80
2022-10-18T16:53:55.079Z,14.15
2022-10-18T16:56:27.055Z,17.15
2022-10-18T17:01:52.281Z,19.33
2022-10-18T17:04:20.251Z,18.85
2022-10-18T17:06:49.053Z,19.27
2022-10-18T17:09:17.680Z,20.00
2022-10-18T17:11:45.627Z,20.88
2022-10-18T17:14:13.606Z,21.90
2022-10-18T17:16:41.612Z,23.60
2022-10-18T17:19:12.928Z,24.90
2022-10-18T17:21:40.902Z,28.17
2022-10-18T17:24:08.839Z,27.17
2022-10-18T17:26:36.958Z,26.67
2022-10-18T17:29:08.350Z,26.67
2022-10-18T17:31:36.790Z,27.13
2022-10-18T17:34:05.384Z,29.33
2022-10-18T17:36:35.432Z,30.60
2022-10-18T17:39:03.503Z,29.45
2022-10-18T17:41:39.561Z,30.65
2022-10-18T17:44:07.806Z,30.20
2022-10-18T17:46:35.793Z,30.60
2022-10-18T17:49:03.849Z,30.70
2022-10-18T17:51:34.656Z,31.98
2022-10-18T17:54:05.865Z,33.33
2022-10-18T17:56:36.101Z,33.50
2022-10-18T17:59:04.154Z,34.33
2022-10-18T18:01:32.207Z,33.13
2022-10-18T18:04:04.358Z,32.97
2022-10-18T18:06:54.063Z,33.45
2022-10-18T18:09:23.599Z,34.30
2022-10-18T18:11:52.283Z,34.80
2022-10-18T18:14:20.295Z,36.15
2022-10-18T18:16:49.223Z,36.03
2022-10-18T18:19:23.383Z,34.55
2022-10-18T18:21:53.626Z,37.67
2022-10-18T18:24:24.780Z,36.22
2022-10-18T18:26:53.929Z,37.08
2022-10-18T18:29:26.740Z,35.67
2022-10-18T18:31:54.995Z,32.95
2022-10-18T18:34:25.597Z,36.22
2022-10-18T18:36:53.639Z,35.30
2022-10-18T18:39:25.459Z,33.08
2022-10-18T18:41:54.011Z,34.22
2022-10-18T18:44:23.040Z,33.15
2022-10-18T18:47:05.246Z,33.63
2022-10-18T18:49:35.336Z,33.15
2022-10-18T18:52:03.281Z,33.53
2022-10-18T18:54:33.111Z,33.60
2022-10-18T18:57:05.237Z,33.92
2022-10-18T18:59:33.287Z,33.45
2022-10-18T19:02:01.314Z,33.28
2022-10-18T19:04:29.341Z,32.53
2022-10-18T19:06:57.596Z,32.20
2022-10-18T19:09:27.311Z,35.00
2022-10-18T19:11:57.521Z,34.67
2022-10-18T19:14:26.384Z,31.95
2022-10-18T19:16:59.026Z,34.28
2022-10-18T19:19:28.920Z,33.05
2022-10-18T19:21:59.277Z,31.58
2022-10-18T19:24:30.159Z,33.53
2022-10-18T19:27:01.468Z,34.03
2022-10-18T19:29:31.338Z,32.20
2022-10-18T19:32:01.182Z,33.03
2022-10-18T19:34:30.687Z,31.20
2022-10-18T19:36:58.880Z,32.08
2022-10-18T19:39:28.763Z,31.98
2022-10-18T19:42:00.150Z,32.15
2022-10-18T19:44:31.627Z,32.80
2022-10-18T19:47:00.396Z,31.50
2022-10-18T19:49:28.976Z,33.20
2022-10-18T19:51:57.672Z,32.03
2022-10-18T19:54:26.240Z,33.63
2022-10-18T19:56:54.480Z,34.30
2022-10-18T19:59:24.607Z,33.60
2022-10-18T20:01:52.757Z,32.85
2022-10-18T20:04:23.655Z,31.95
2022-10-18T20:06:51.703Z,32.47
2022-10-18T20:09:21.471Z,34.05
2022-10-18T20:11:49.574Z,32.80
2022-10-18T20:14:17.669Z,33.67
2022-10-18T20:16:46.996Z,33.00
2022-10-18T20:19:15.097Z,33.42
2022-10-18T20:21:43.082Z,32.28
2022-10-18T20:24:12.407Z,31.50
2022-10-18T20:26:40.766Z,30.55
2022-10-18T20:29:08.800Z,31.17
2022-10-18T20:31:39.046Z,30.27
2022-10-18T20:34:12.014Z,31.48
2022-10-18T20:36:43.144Z,31.23
2022-10-18T20:39:11.202Z,31.25
2022-10-18T20:41:44.211Z,29.63
2022-10-18T20:44:14.839Z,29.48
2022-10-18T20:46:43.420Z,30.20
2022-10-18T20:49:15.692Z,30.40
2022-10-18T20:51:43.722Z,29.65
2022-10-18T20:54:12.433Z,28.48
2022-10-18T20:56:40.791Z,29.45
2022-10-18T20:59:10.091Z,29.38
2022-10-18T21:01:40.054Z,28.98
2022-10-18T21:04:09.667Z,28.77
2022-10-18T21:06:41.361Z,29.35
2022-10-18T21:09:11.684Z,29.80
2022-10-18T21:11:41.414Z,29.35
2022-10-18T21:14:13.181Z,29.05
2022-10-18T21:16:41.656Z,29.48
2022-10-18T21:19:12.768Z,29.95
2022-10-18T21:21:44.061Z,29.63
2022-10-18T21:24:12.649Z,30.35
2022-10-18T21:26:41.108Z,32.13
2022-10-18T21:29:09.768Z,30.42
2022-10-18T21:31:40.147Z,30.65
2022-10-18T21:34:13.291Z,29.70
2022-10-18T21:36:43.988Z,31.15
2022-10-18T21:39:14.862Z,33.83
2022-10-18T21:41:42.994Z,33.03
2022-10-18T21:44:11.668Z,32.65
2022-10-18T21:46:40.385Z,32.45
2022-10-18T21:49:08.732Z,31.08
2022-10-18T21:51:37.280Z,32.78
2022-10-18T21:54:09.266Z,32.95
2022-10-18T21:56:37.594Z,33.28
2022-10-18T21:59:06.302Z,31.45
2022-10-18T22:01:35.732Z,30.58
2022-10-18T22:04:06.167Z,30.45
2022-10-18T22:06:36.386Z,30.67
2022-10-18T22:09:08.600Z,29.63
2022-10-18T22:11:39.067Z,28.70
2022-10-18T22:14:07.099Z,29.35
2022-10-18T22:16:35.160Z,29.77
2022-10-18T22:19:04.925Z,29.80
2022-10-18T22:21:33.229Z,30.02
2022-10-18T22:24:01.405Z,31.67
2022-10-18T22:26:33.409Z,31.80
2022-10-18T22:29:02.921Z,31.08
2022-10-18T22:31:32.890Z,30.50
2022-10-18T22:34:03.307Z,30.60
2022-10-18T22:36:32.693Z,31.45
2022-10-18T22:39:00.903Z,30.77
2022-10-18T22:41:30.305Z,29.25
2022-10-18T22:44:01.128Z,29.33
2022-10-18T22:46:31.905Z,30.17
2022-10-18T22:49:00.419Z,29.65
2022-10-18T22:51:28.559Z,30.58
2022-10-18T22:53:56.949Z,30.67
2022-10-18T22:56:25.162Z,30.67
2022-10-18T22:58:54.557Z,30.38
2022-10-18T23:01:23.735Z,32.58
2022-10-18T23:03:55.516Z,30.30
2022-10-18T23:06:25.980Z,30.65
2022-10-18T23:08:55.418Z,34.17
2022-10-18T23:11:23.609Z,32.47
2022-10-18T23:13:51.685Z,33.22
2022-10-18T23:16:21.507Z,33.47
2022-10-18T23:18:52.187Z,33.30
2022-10-18T23:21:20.842Z,32.63
2022-10-18T23:23:48.888Z,32.92
2022-10-18T23:26:19.531Z,31.95
2022-10-18T23:28:48.792Z,33.97
2022-10-18T23:31:18.768Z,34.22
2022-10-18T23:33:50.507Z,33.25
2022-10-18T23:36:19.311Z,32.47
2022-10-18T23:38:47.279Z,32.13
2022-10-18T23:41:16.992Z,33.50
2022-10-18T23:43:45.765Z,32.28
2022-10-18T23:46:14.725Z,31.88
2022-10-18T23:48:42.820Z,32.75
2022-10-18T23:51:12.576Z,31.75
2022-10-18T23:53:40.827Z,31.38
2022-10-18T23:56:11.513Z,31.13
2022-10-18T23:58:39.971Z,32.90
